Terminal Aerodrome Forecast
Issued by NWS

Home | Current Version | Previous Version | Text Only | Print | Product List | Glossary On
Versions: 1 2 3 4 5 6 7 8 9 10 11 12 13 14 15 16
000
FTAK31 PANC 300524
TAFADU
TAF
PADU 300524Z 3006/3106 12014KT P6SM SCT025 OVC035
      TEMPO 3006/3010 12014G21KT BKN025 OVC035
     FM301100 12016G25KT P6SM BKN025
     FM301600 11023G33KT P6SM -RA BKN018
     FM310200 12018G28KT 4SM -RA BR SCT007 OVC015=

USA.gov is the U.S. government's official web portal to all federal, state and local government web resources and services.